createdAt,value
2023-05-01T00:00:21.780Z,8.06
2023-05-01T00:10:53.874Z,7.78
2023-05-01T00:21:19.497Z,7.84
2023-05-01T00:31:45.983Z,7.73
2023-05-01T00:42:11.579Z,7.48
2023-05-01T00:52:37.380Z,7.29
2023-05-01T01:03:04.602Z,7.21
2023-05-01T01:13:36.384Z,7.14
2023-05-01T01:24:26.555Z,7.10
2023-05-01T01:34:55.277Z,6.94
2023-05-01T01:45:25.034Z,6.87
2023-05-01T01:55:53.327Z,6.81
2023-05-01T02:06:20.697Z,6.76
2023-05-01T02:16:48.531Z,6.67
2023-05-01T02:27:17.658Z,6.52
2023-05-01T02:37:44.395Z,6.35
2023-05-01T02:48:15.050Z,6.26
2023-05-01T02:58:50.734Z,6.12
2023-05-01T03:09:16.447Z,5.85
2023-05-01T03:19:42.874Z,5.61
2023-05-01T03:30:10.719Z,5.43
2023-05-01T03:40:35.994Z,5.19
2023-05-01T03:51:01.629Z,5.07
2023-05-01T04:01:27.646Z,5.20
2023-05-01T04:11:53.648Z,5.26
2023-05-01T04:22:20.039Z,5.28
2023-05-01T04:32:45.790Z,5.21
2023-05-01T04:43:11.485Z,5.42
2023-05-01T04:53:37.350Z,5.74
2023-05-01T05:04:03.721Z,6.27
2023-05-01T05:14:30.003Z,7.08
2023-05-01T05:25:00.374Z,8.06
2023-05-01T05:35:26.215Z,9.26
2023-05-01T05:45:52.142Z,10.43
2023-05-01T05:56:18.074Z,11.46
2023-05-01T06:06:44.118Z,12.46
2023-05-01T06:17:10.043Z,13.54
2023-05-01T06:27:35.850Z,14.43
2023-05-01T06:38:02.973Z,15.20
2023-05-01T06:48:29.826Z,15.61
2023-05-01T06:58:55.977Z,15.76
2023-05-01T07:09:22.520Z,16.04
2023-05-01T07:19:48.384Z,16.24
2023-05-01T07:30:15.127Z,16.25
2023-05-01T07:40:41.182Z,16.33
2023-05-01T07:51:07.805Z,16.38
2023-05-01T08:01:35.073Z,16.17
2023-05-01T08:12:02.118Z,16.44
2023-05-01T08:22:27.892Z,16.45
2023-05-01T08:32:53.607Z,16.45
2023-05-01T08:43:20.122Z,16.46
2023-05-01T08:53:47.971Z,16.22
2023-05-01T09:04:14.502Z,16.36
2023-05-01T09:14:40.864Z,16.46
2023-05-01T09:25:07.606Z,16.27
2023-05-01T09:35:34.322Z,16.40
2023-05-01T09:46:09.655Z,16.49
2023-05-01T09:56:47.195Z,16.49
2023-05-01T10:07:14.639Z,16.54
2023-05-01T10:17:41.773Z,16.57
2023-05-01T10:28:09.992Z,16.79
2023-05-01T10:38:37.865Z,17.12
2023-05-01T10:49:04.249Z,17.34
2023-05-01T10:59:50.367Z,17.54
2023-05-01T11:10:29.904Z,17.75
2023-05-01T11:20:55.442Z,17.87
2023-05-01T11:31:22.021Z,17.99
2023-05-01T11:41:48.604Z,18.00
2023-05-01T11:52:14.760Z,18.07
2023-05-01T12:02:40.869Z,18.21
2023-05-01T12:13:07.436Z,18.28
2023-05-01T12:23:37.562Z,18.34
2023-05-01T12:34:06.167Z,18.33
2023-05-01T12:44:32.581Z,18.46
2023-05-01T12:55:05.530Z,18.52
2023-05-01T13:05:31.550Z,18.57
2023-05-01T13:16:07.172Z,18.63
2023-05-01T13:26:36.171Z,18.65
2023-05-01T13:37:03.789Z,18.68
2023-05-01T13:47:29.670Z,18.74
2023-05-01T13:57:55.840Z,18.80
2023-05-01T14:08:26.107Z,18.86
2023-05-01T14:18:54.589Z,18.87
2023-05-01T14:29:27.295Z,18.85
2023-05-01T14:39:53.188Z,18.85
2023-05-01T14:50:22.353Z,18.85
2023-05-01T15:00:48.170Z,18.84
2023-05-01T15:11:15.569Z,18.79
2023-05-01T15:21:41.466Z,18.79
2023-05-01T15:32:12.388Z,18.76
2023-05-01T15:42:40.255Z,18.74
2023-05-01T15:53:05.733Z,18.74
2023-05-01T16:03:32.520Z,18.71
2023-05-01T16:13:58.526Z,18.73
2023-05-01T16:24:24.376Z,18.69
2023-05-01T16:34:50.228Z,18.67
2023-05-01T16:45:15.940Z,18.59
2023-05-01T16:55:41.967Z,18.49
2023-05-01T17:06:08.425Z,18.41
2023-05-01T17:16:35.333Z,18.22
2023-05-01T17:27:01.069Z,18.08
2023-05-01T17:37:27.041Z,17.93
2023-05-01T17:47:53.943Z,17.84
2023-05-01T17:58:20.673Z,17.79
2023-05-01T18:08:46.435Z,17.65
2023-05-01T18:19:12.317Z,17.51
2023-05-01T18:29:39.236Z,17.36
2023-05-01T18:40:05.888Z,17.17
2023-05-01T18:50:31.451Z,16.88
2023-05-01T19:00:57.378Z,16.66
2023-05-01T19:11:23.602Z,16.55
2023-05-01T19:21:51.050Z,16.42
2023-05-01T19:32:17.753Z,16.18
2023-05-01T19:42:43.682Z,15.88
2023-05-01T19:53:10.154Z,15.63
2023-05-01T20:03:36.041Z,15.42
2023-05-01T20:14:03.629Z,15.06
2023-05-01T20:24:29.094Z,15.02
2023-05-01T20:34:55.600Z,14.84
2023-05-01T20:45:21.397Z,14.58
2023-05-01T20:55:47.961Z,14.33
2023-05-01T21:06:16.323Z,14.10
2023-05-01T21:16:42.286Z,14.01
2023-05-01T21:27:10.396Z,13.81
2023-05-01T21:48:21.305Z,13.38
2023-05-01T21:58:46.995Z,13.19
2023-05-01T22:09:12.625Z,13.11
2023-05-01T22:19:39.041Z,12.94
2023-05-01T22:30:06.168Z,12.80
2023-05-01T22:40:32.154Z,12.76
2023-05-01T22:50:57.582Z,12.63
2023-05-01T23:01:23.824Z,12.48
2023-05-01T23:11:50.165Z,12.49
2023-05-01T23:22:16.155Z,12.41
2023-05-01T23:32:42.637Z,12.36
2023-05-01T23:43:08.436Z,12.22
2023-05-01T23:53:34.410Z,12.18
